Time;durP1;ratioP1;P1;durP2;ratioP2;P2;SDS_P1;SDS_P2;PMS_P1;PMS_P2;Temp;Humidity;BMP_temperature;BMP_pressure;BME280_temperature;BME280_humidity;BME280_pressure;Samples;Min_cycle;Max_cycle;Signal;HPM_P1;HPM_P2
2022/06/10 00:02:21;;;;;;;;;5.00;4.00;;;;;18.82;62.00;101680.50;5085518;28;45278;-76
2022/06/10 00:04:46;;;;;;;;;5.33;3.33;;;;;18.79;62.22;101686.31;5094178;27;45302;-76
2022/06/10 00:07:11;;;;;;;;;6.00;6.00;;;;;18.77;61.93;101691.88;5106423;27;54374;-76
2022/06/10 00:09:37;;;;;;;;;6.00;6.00;;;;;18.68;62.45;101677.81;5104330;27;48442;-76
2022/06/10 00:12:02;;;;;;;;;4.00;3.33;;;;;18.70;62.43;101687.56;5105552;27;45436;-76
2022/06/10 00:14:29;;;;;;;;;7.00;7.00;;;;;18.52;62.34;101668.28;5104563;27;45344;-76
2022/06/10 00:16:54;;;;;;;;;5.00;5.00;;;;;18.57;62.46;101681.13;5105784;27;45334;-76
2022/06/10 00:19:20;;;;;;;;;8.00;6.67;;;;;18.47;63.25;101672.63;5105373;27;45348;-77
2022/06/10 00:21:45;;;;;;;;;6.00;6.00;;;;;18.47;63.11;101678.00;5105268;27;45401;-76
2022/06/10 00:24:10;;;;;;;;;6.00;6.00;;;;;18.37;63.30;101665.75;5104664;27;45410;-76
2022/06/10 00:26:36;;;;;;;;;7.67;6.33;;;;;18.40;64.01;101692.25;5104515;27;45349;-76
2022/06/10 00:29:02;;;;;;;;;7.00;7.00;;;;;18.31;64.10;101680.03;5105476;27;45558;-76
2022/06/10 00:31:28;;;;;;;;;5.00;5.00;;;;;18.33;63.74;101683.34;5105352;27;45257;-76
2022/06/10 00:33:53;;;;;;;;;8.00;7.00;;;;;18.25;64.20;101678.97;5104587;27;45716;-76
2022/06/10 00:36:20;;;;;;;;;7.33;7.00;;;;;18.27;64.43;101690.38;5104497;27;45190;-76
2022/06/10 00:38:46;;;;;;;;;6.00;6.00;;;;;18.23;64.62;101689.09;5119641;27;48157;-76
2022/06/10 00:41:12;;;;;;;;;6.67;6.00;;;;;18.11;65.03;101674.59;5104092;27;45423;-77
2022/06/10 00:43:38;;;;;;;;;6.00;6.00;;;;;18.03;65.35;101668.34;5103959;27;45299;-76
2022/06/10 00:46:34;;;;;;;;;9.33;7.67;;;;;18.04;65.16;101679.91;5104781;27;45439;-76
2022/06/10 00:49:05;;;;;;;;;6.67;4.33;;;;;18.03;65.00;101676.41;5104260;27;45347;-76
2022/06/10 00:51:36;;;;;;;;;7.00;7.00;;;;;18.00;65.79;101670.59;5103067;27;45281;-76
2022/06/10 00:54:37;;;;;;;;;5.67;5.67;;;;;17.98;65.67;101678.03;5104560;27;45307;-76
2022/06/10 00:57:14;;;;;;;;;9.00;7.67;;;;;17.95;65.66;101667.66;5091707;27;45411;-76
2022/06/10 00:59:56;;;;;;;;;8.33;8.33;;;;;17.90;66.30;101674.47;5104583;27;46550;-76
2022/06/10 01:02:24;;;;;;;;;6.33;6.00;;;;;17.87;66.11;101664.13;5104013;27;45481;-76
2022/06/10 01:04:51;;;;;;;;;9.67;8.33;;;;;17.90;66.37;101668.28;5104537;27;45444;-76
2022/06/10 01:07:21;;;;;;;;;6.67;6.67;;;;;17.88;66.68;101668.50;5103742;27;45343;-77
2022/06/10 01:09:48;;;;;;;;;10.00;8.33;;;;;17.85;67.19;101654.59;5104000;27;46415;-76
2022/06/10 01:12:25;;;;;;;;;9.67;8.00;;;;;17.91;66.88;101669.94;5103225;27;46211;-77
2022/06/10 01:15:04;;;;;;;;;9.33;8.33;;;;;17.96;66.83;101666.66;5102557;27;45378;-76
2022/06/10 01:17:43;;;;;;;;;8.00;6.67;;;;;17.98;67.02;101662.72;5103813;27;45306;-76
2022/06/10 01:20:37;;;;;;;;;6.00;6.00;;;;;18.01;67.12;101661.50;5103803;27;45318;-76
2022/06/10 01:23:45;;;;;;;;;4.00;4.00;;;;;17.97;67.28;101658.38;5120010;27;45370;-75
2022/06/10 01:29:59;;;;;;;;;7.00;6.00;;;;;18.00;67.04;101665.22;5103458;27;45301;-76
2022/06/10 01:32:39;;;;;;;;;7.33;7.00;;;;;17.98;66.37;101659.19;5103590;27;45308;-76
2022/06/10 01:35:14;;;;;;;;;8.00;7.00;;;;;17.96;66.96;101656.72;5103984;27;45352;-76
2022/06/10 01:37:49;;;;;;;;;7.00;7.00;;;;;17.86;67.04;101650.88;5103148;27;45474;-76
2022/06/10 01:40:47;;;;;;;;;6.00;6.00;;;;;17.92;67.34;101658.16;5103912;27;45398;-76
2022/06/10 01:43:33;;;;;;;;;7.00;6.33;;;;;17.90;67.11;101657.53;5090579;27;46335;-76
2022/06/10 01:46:12;;;;;;;;;6.00;6.00;;;;;17.83;67.01;101656.66;5103676;27;45188;-76
2022/06/10 01:48:47;;;;;;;;;6.67;6.67;;;;;17.85;67.12;101662.69;5101579;27;45267;-76
2022/06/10 01:51:21;;;;;;;;;6.33;6.33;;;;;17.82;67.58;101663.91;5102232;27;47160;-76
2022/06/10 01:53:57;;;;;;;;;6.00;5.00;;;;;17.76;67.29;101660.19;5101875;27;46451;-75
2022/06/10 01:56:34;;;;;;;;;7.33;6.67;;;;;17.82;68.31;101669.28;5102423;27;45417;-76
2022/06/10 01:59:14;;;;;;;;;7.67;7.00;;;;;17.73;68.10;101655.19;5102460;27;45429;-77
2022/06/10 02:01:44;;;;;;;;;6.67;6.00;;;;;17.72;67.78;101655.41;5102300;27;45297;-76
2022/06/10 02:04:16;;;;;;;;;5.00;5.00;;;;;17.79;68.49;101667.84;5097046;27;48719;-76
2022/06/10 02:06:49;;;;;;;;;5.33;5.00;;;;;17.76;68.34;101667.41;5081713;27;45213;-77
2022/06/10 02:09:21;;;;;;;;;7.00;7.00;;;;;17.82;68.59;101668.44;5114530;27;45465;-77
2022/06/10 02:11:53;;;;;;;;;6.00;6.00;;;;;17.81;68.57;101669.50;5081343;28;45405;-76
2022/06/10 02:14:32;;;;;;;;;5.67;5.33;;;;;17.75;68.77;101660.38;5082403;28;46651;-76
2022/06/10 02:17:01;;;;;;;;;7.00;6.33;;;;;17.83;68.60;101672.78;5081007;28;45347;-76
2022/06/10 02:19:42;;;;;;;;;7.00;7.00;;;;;17.79;68.78;101667.00;5082339;28;45288;-76
2022/06/10 02:22:12;;;;;;;;;5.00;5.00;;;;;17.76;68.73;101668.25;5081717;28;45351;-76
2022/06/10 02:24:43;;;;;;;;;8.00;7.00;;;;;17.77;69.20;101675.25;5082088;28;46608;-76
2022/06/10 02:27:26;;;;;;;;;5.33;5.33;;;;;17.69;68.87;101655.78;5082595;28;45225;-76
2022/06/10 02:30:07;;;;;;;;;4.00;4.00;;;;;17.71;69.31;101667.16;5081708;27;45370;-76
2022/06/10 02:32:34;;;;;;;;;6.00;6.00;;;;;17.72;69.37;101676.91;5082205;28;45356;-76
2022/06/10 02:35:01;;;;;;;;;5.33;5.00;;;;;17.65;69.39;101656.19;5081058;27;45402;-76
2022/06/10 02:37:47;;;;;;;;;8.00;7.00;;;;;17.68;69.21;101663.00;5080555;28;45681;-77
2022/06/10 02:40:31;;;;;;;;;8.00;8.00;;;;;17.57;69.68;101652.84;5082131;27;45381;-76
2022/06/10 02:43:03;;;;;;;;;7.00;6.67;;;;;17.59;69.21;101672.25;5081036;27;45579;-76
2022/06/10 02:45:51;;;;;;;;;8.67;7.67;;;;;17.51;69.92;101668.72;5081414;28;46064;-76
2022/06/10 02:48:48;;;;;;;;;8.33;8.33;;;;;17.49;70.20;101672.63;5069329;27;45446;-76
2022/06/10 02:51:16;;;;;;;;;5.67;5.67;;;;;17.44;70.12;101667.84;5081253;27;45708;-76
2022/06/10 02:53:41;;;;;;;;;7.00;7.00;;;;;17.40;70.58;101675.50;5081165;28;45295;-76
2022/06/10 02:56:21;;;;;;;;;7.33;7.33;;;;;17.39;70.40;101676.50;5079577;28;48365;-77
2022/06/10 03:02:03;;;;;;;;;5.00;5.00;;;;;17.41;70.90;101687.06;5081197;28;45350;-76
2022/06/10 03:04:59;;;;;;;;;6.67;6.00;;;;;17.41;70.84;101681.69;5096896;27;47611;-77
2022/06/10 03:07:27;;;;;;;;;6.00;6.00;;;;;17.41;70.77;101676.31;5080270;28;46929;-76
2022/06/10 03:10:05;;;;;;;;;7.00;7.00;;;;;17.40;70.94;101682.72;5081086;27;45322;-76
2022/06/10 03:12:37;;;;;;;;;9.00;8.00;;;;;17.39;70.52;101681.88;5079541;28;45335;-76
2022/06/10 03:15:27;;;;;;;;;7.00;7.00;;;;;17.32;70.80;101669.41;5081196;28;45411;-76
2022/06/10 03:17:53;;;;;;;;;6.33;6.33;;;;;17.36;71.10;101678.75;5078956;28;46917;-76
2022/06/10 03:20:48;;;;;;;;;6.33;6.00;;;;;17.34;70.68;101686.19;5080736;27;45225;-76
2022/06/10 03:23:39;;;;;;;;;6.67;6.67;;;;;17.32;70.69;101691.75;5025801;27;45327;-76
2022/06/10 03:26:18;;;;;;;;;7.00;6.33;;;;;17.23;71.31;101684.84;5073966;28;45346;-76
2022/06/10 03:29:08;;;;;;;;;8.33;7.33;;;;;17.24;71.12;101692.72;5081583;28;45364;-76
2022/06/10 03:31:58;;;;;;;;;7.00;7.00;;;;;17.13;71.23;101690.59;5080719;28;45317;-76
2022/06/10 03:34:37;;;;;;;;;6.67;6.33;;;;;17.09;71.67;101697.38;5083175;27;45322;-77
2022/06/10 03:37:06;;;;;;;;;9.00;7.67;;;;;17.11;71.35;101706.06;5081341;27;45670;-76
2022/06/10 03:39:32;;;;;;;;;9.00;7.00;;;;;17.02;71.80;101697.28;5097596;27;47666;-76
2022/06/10 03:42:14;;;;;;;;;9.00;8.00;;;;;17.03;72.22;101720.44;5082655;27;45355;-76
2022/06/10 03:44:40;;;;;;;;;8.00;7.00;;;;;16.90;71.91;101702.34;5081781;27;45334;-76
2022/06/10 03:47:10;;;;;;;;;7.67;7.67;;;;;16.97;72.67;101718.53;5081641;27;45351;-77
2022/06/10 03:49:49;;;;;;;;;9.00;8.00;;;;;16.92;71.97;101716.41;5097567;27;47269;-76
2022/06/10 03:52:25;;;;;;;;;6.67;6.67;;;;;16.88;72.20;101709.78;5081036;27;45321;-77
2022/06/10 03:54:50;;;;;;;;;4.33;4.33;;;;;16.86;72.77;101706.44;5080907;27;45345;-76
2022/06/10 03:57:17;;;;;;;;;10.00;8.67;;;;;16.75;72.50;101700.56;5080708;27;45424;-76
2022/06/10 03:59:44;;;;;;;;;8.33;8.00;;;;;16.79;72.96;101704.53;5081116;27;45317;-76
2022/06/10 04:02:09;;;;;;;;;7.00;6.33;;;;;16.73;72.62;101699.09;5083503;28;45291;-76
2022/06/10 04:04:34;;;;;;;;;7.00;6.67;;;;;16.66;72.81;101696.34;5091054;27;45332;-76
2022/06/10 04:07:00;;;;;;;;;8.67;7.67;;;;;16.69;73.11;101703.19;5104518;27;45338;-76
2022/06/10 04:09:25;;;;;;;;;7.33;6.67;;;;;16.66;72.86;101715.13;5102942;27;45396;-75
2022/06/10 04:11:51;;;;;;;;;10.00;7.67;;;;;16.62;73.12;101712.03;5102929;27;45254;-76
2022/06/10 04:14:16;;;;;;;;;6.00;6.00;;;;;16.59;73.06;101711.56;5102770;27;45477;-76
2022/06/10 04:16:41;;;;;;;;;7.00;7.00;;;;;16.55;73.52;101718.34;5102425;27;45361;-76
2022/06/10 04:19:07;;;;;;;;;8.67;8.67;;;;;16.60;73.73;101723.94;5105881;27;50704;-75
2022/06/10 04:21:32;;;;;;;;;6.33;6.33;;;;;16.62;73.91;101724.59;5112080;27;45234;-75
2022/06/10 04:23:57;;;;;;;;;8.67;8.67;;;;;16.59;74.06;101711.56;5114958;27;45330;-76
2022/06/10 04:26:23;;;;;;;;;10.33;8.67;;;;;16.66;73.83;101721.34;5111547;27;45464;-75
2022/06/10 04:28:48;;;;;;;;;8.00;7.33;;;;;16.56;74.05;101712.78;5114249;27;47045;-76
2022/06/10 04:31:13;;;;;;;;;8.00;7.00;;;;;16.63;73.71;101718.19;5115440;27;45350;-76
2022/06/10 04:33:39;;;;;;;;;9.67;8.33;;;;;16.68;74.03;101737.25;5113081;27;45325;-76
2022/06/10 04:36:05;;;;;;;;;8.67;7.00;;;;;16.66;73.89;101736.59;5114858;27;45365;-75
2022/06/10 04:38:32;;;;;;;;;9.67;9.67;;;;;16.71;73.93;101730.66;5114800;27;46110;-76
2022/06/10 04:40:58;;;;;;;;;6.00;6.00;;;;;16.68;74.00;101733.72;5114776;27;45279;-75
2022/06/10 04:43:23;;;;;;;;;10.00;10.00;;;;;16.78;73.87;101736.94;5114338;27;45225;-75
2022/06/10 04:45:53;;;;;;;;;9.67;8.33;;;;;16.71;73.90;101720.78;5113288;27;45306;-76
2022/06/10 04:48:18;;;;;;;;;8.00;7.67;;;;;16.76;74.23;101731.75;5115334;27;48286;-76
2022/06/10 04:50:45;;;;;;;;;8.67;8.67;;;;;16.79;74.10;101734.06;5116577;27;45583;-76
2022/06/10 04:53:11;;;;;;;;;9.67;8.67;;;;;16.76;74.48;101728.25;5117504;27;45235;-76
2022/06/10 04:55:36;;;;;;;;;9.67;9.00;;;;;16.74;74.51;101731.13;5114728;27;45302;-76
2022/06/10 04:58:02;;;;;;;;;7.67;7.67;;;;;16.75;74.56;101727.41;5114678;27;46134;-75
2022/06/10 05:00:40;;;;;;;;;7.00;7.00;;;;;16.83;74.36;101733.66;5117788;27;44646;-76
2022/06/10 05:03:07;;;;;;;;;6.67;6.67;;;;;16.74;74.32;101714.19;5130072;27;45286;-76
2022/06/10 05:05:34;;;;;;;;;9.00;9.00;;;;;16.82;74.11;101732.03;5116408;27;45106;-75
2022/06/10 05:07:59;;;;;;;;;8.00;6.00;;;;;16.85;74.74;101729.75;5117468;27;45224;-75
2022/06/10 05:10:26;;;;;;;;;9.00;9.00;;;;;16.88;74.09;101728.56;5114557;27;45323;-76
2022/06/10 05:12:51;;;;;;;;;8.00;8.00;;;;;16.83;74.22;101717.56;5100449;27;45341;-76
2022/06/10 05:15:21;;;;;;;;;9.00;9.00;;;;;16.94;74.82;101726.97;5101234;27;45266;-76
2022/06/10 05:17:48;;;;;;;;;8.33;7.67;;;;;16.95;74.22;101725.94;5117229;27;48309;-76
2022/06/10 05:20:19;;;;;;;;;7.67;7.67;;;;;16.97;74.35;101734.63;5101005;27;45371;-76
2022/06/10 05:22:44;;;;;;;;;9.00;9.00;;;;;16.97;74.74;101734.63;5100170;27;45293;-75
2022/06/10 05:25:11;;;;;;;;;6.00;6.00;;;;;17.05;74.68;101739.84;5101215;27;45298;-75
2022/06/10 05:27:37;;;;;;;;;6.00;6.00;;;;;17.08;74.26;101741.34;5134139;27;47419;-77
2022/06/10 05:30:04;;;;;;;;;9.00;8.00;;;;;17.12;73.67;101738.09;5101267;27;45229;-76
2022/06/10 05:32:30;;;;;;;;;6.00;6.00;;;;;17.09;73.86;101725.03;5101306;27;45262;-76
2022/06/10 05:34:55;;;;;;;;;6.67;6.67;;;;;17.14;73.47;101727.16;5099286;27;45657;-77
2022/06/10 05:37:26;;;;;;;;;10.33;7.67;;;;;17.25;74.08;101734.69;5101077;27;45375;-76
2022/06/10 05:39:52;;;;;;;;;7.00;7.00;;;;;17.29;74.08;101737.81;5101055;27;45212;-76
2022/06/10 05:42:18;;;;;;;;;8.00;8.00;;;;;17.26;74.24;101728.28;5134167;27;45156;-76
2022/06/10 05:44:46;;;;;;;;;6.67;6.67;;;;;17.27;74.18;101729.13;5100946;27;45282;-76
2022/06/10 05:47:34;;;;;;;;;7.00;7.00;;;;;17.35;74.64;101736.19;5116747;27;48138;-77
2022/06/10 05:50:03;;;;;;;;;7.33;7.00;;;;;17.36;73.81;101732.50;5133329;27;45289;-76
2022/06/10 05:52:30;;;;;;;;;9.67;7.67;;;;;17.38;74.75;101733.13;5101049;27;45396;-76
2022/06/10 05:55:00;;;;;;;;;8.00;7.00;;;;;17.47;74.38;101745.38;5100625;27;45441;-75
2022/06/10 05:57:26;;;;;;;;;7.00;7.00;;;;;17.52;74.03;101751.03;5100645;27;46347;-76
2022/06/10 05:59:52;;;;;;;;;8.33;8.00;;;;;17.57;74.07;101744.22;5100559;27;45531;-76
2022/06/10 06:02:19;;;;;;;;;6.00;5.33;;;;;17.70;74.29;101754.22;5101022;27;45475;-76
2022/06/10 06:04:44;;;;;;;;;8.33;8.33;;;;;17.76;74.08;101754.28;5091832;27;45471;-76
2022/06/10 06:07:15;;;;;;;;;8.67;8.33;;;;;17.87;74.02;101766.31;5079787;27;53890;-76
2022/06/10 06:09:40;;;;;;;;;8.00;7.67;;;;;17.89;73.73;101761.56;5080326;27;45491;-76
2022/06/10 06:12:06;;;;;;;;;7.00;7.00;;;;;18.00;73.23;101775.47;5080036;28;45318;-77
2022/06/10 06:14:32;;;;;;;;;7.67;7.67;;;;;18.05;73.01;101775.72;5078728;28;47182;-76
2022/06/10 06:17:01;;;;;;;;;7.00;6.67;;;;;18.00;72.91;101762.88;5079944;27;45967;-76
2022/06/10 06:19:28;;;;;;;;;10.00;7.67;;;;;18.13;73.19;101769.34;5079758;28;45397;-76
2022/06/10 06:21:54;;;;;;;;;7.00;7.00;;;;;18.19;73.28;101768.56;5080156;27;45376;-76
2022/06/10 06:24:20;;;;;;;;;7.00;7.00;;;;;18.24;73.39;101762.59;5079495;27;45358;-77
2022/06/10 06:26:45;;;;;;;;;5.67;5.67;;;;;18.31;72.86;101771.50;5079807;28;45286;-76
2022/06/10 06:29:11;;;;;;;;;8.33;8.00;;;;;18.36;72.46;101771.75;5079807;28;45374;-76
2022/06/10 06:31:37;;;;;;;;;6.67;6.67;;;;;18.45;72.98;101777.78;5079920;28;45315;-76
2022/06/10 06:34:03;;;;;;;;;7.67;7.00;;;;;18.42;72.44;101770.09;5079861;28;45357;-76
2022/06/10 06:36:37;;;;;;;;;7.00;6.33;;;;;18.46;72.61;101774.03;5079396;27;45316;-76
2022/06/10 06:39:02;;;;;;;;;8.00;7.67;;;;;18.50;72.74;101775.28;5079828;27;45427;-76
2022/06/10 06:41:28;;;;;;;;;6.00;6.00;;;;;18.51;72.67;101774.28;5079627;27;45299;-77
2022/06/10 06:43:53;;;;;;;;;7.67;7.67;;;;;18.60;72.69;101793.78;5078020;28;47189;-75
2022/06/10 06:46:19;;;;;;;;;10.00;8.00;;;;;18.66;72.97;101792.97;5079558;28;45321;-76
2022/06/10 06:48:45;;;;;;;;;9.67;8.33;;;;;18.67;72.02;101799.16;5095095;27;45319;-76
2022/06/10 06:51:10;;;;;;;;;11.33;10.33;;;;;18.60;71.87;101783.00;5078196;28;45269;-77
2022/06/10 06:53:36;;;;;;;;;8.00;7.33;;;;;18.70;72.39;101796.06;5079335;27;45531;-76
2022/06/10 06:56:03;;;;;;;;;9.67;9.33;;;;;18.70;72.32;101779.91;5078007;28;48624;-76
2022/06/10 06:58:29;;;;;;;;;7.33;7.33;;;;;18.72;72.90;101772.47;5112302;27;45315;-76
2022/06/10 07:00:54;;;;;;;;;10.00;9.00;;;;;18.82;72.52;101779.34;5079580;28;45328;-76
2022/06/10 07:03:20;;;;;;;;;9.00;8.00;;;;;18.89;72.43;101775.59;5079426;28;45902;-76
2022/06/10 07:05:46;;;;;;;;;7.00;7.00;;;;;18.95;72.46;101782.03;5077629;28;48025;-76
2022/06/10 07:08:11;;;;;;;;;7.67;7.67;;;;;19.05;72.07;101789.72;5078891;28;45319;-75
2022/06/10 07:10:37;;;;;;;;;8.33;8.00;;;;;19.00;72.04;101776.03;5079312;27;45323;-77
2022/06/10 07:13:02;;;;;;;;;8.33;5.67;;;;;19.12;72.25;101781.66;5079434;27;45236;-76
2022/06/10 07:15:27;;;;;;;;;6.33;6.33;;;;;19.14;72.20;101769.66;5079084;27;47129;-76
2022/06/10 07:17:53;;;;;;;;;6.67;6.00;;;;;19.25;72.06;101783.53;5079286;27;45358;-76
2022/06/10 07:20:25;;;;;;;;;7.00;6.00;;;;;19.30;72.09;101778.34;5079193;27;45362;-75
2022/06/10 07:22:51;;;;;;;;;6.00;5.00;;;;;19.38;71.63;101780.84;5079032;27;46269;-76
2022/06/10 07:25:17;;;;;;;;;7.67;5.67;;;;;19.44;71.48;101779.19;5079022;27;45562;-76
2022/06/10 07:27:43;;;;;;;;;6.33;6.33;;;;;19.52;70.96;101784.34;5079015;27;45377;-76
2022/06/10 07:30:13;;;;;;;;;7.33;6.00;;;;;19.59;71.48;101778.13;5094951;27;45306;-76
2022/06/10 07:32:39;;;;;;;;;5.00;5.00;;;;;19.67;71.04;101777.91;5079008;27;45292;-76
2022/06/10 07:35:05;;;;;;;;;6.33;5.67;;;;;19.69;71.27;101767.72;5078721;27;45288;-75
2022/06/10 07:37:30;;;;;;;;;5.00;4.67;;;;;19.83;70.92;101781.19;5082554;27;45252;-76
2022/06/10 07:39:57;;;;;;;;;4.00;4.00;;;;;19.89;70.18;101781.19;5082652;27;45304;-75
2022/06/10 07:42:22;;;;;;;;;7.67;4.00;;;;;19.96;69.42;101780.34;5080750;28;45905;-76
2022/06/10 07:44:47;;;;;;;;;3.00;3.00;;;;;20.01;69.83;101783.25;5082346;27;45307;-76
2022/06/10 07:47:14;;;;;;;;;3.67;3.00;;;;;20.13;68.78;101786.09;5080798;28;45356;-76
2022/06/10 07:49:39;;;;;;;;;3.67;3.33;;;;;20.16;67.99;101782.97;5080937;28;45359;-76
2022/06/10 07:52:06;;;;;;;;;3.33;3.33;;;;;20.25;67.44;101788.97;5082278;27;45349;-76
2022/06/10 07:54:33;;;;;;;;;3.00;3.00;;;;;20.30;68.30;101795.38;5082296;27;45390;-76
2022/06/10 07:56:59;;;;;;;;;4.00;4.00;;;;;20.34;67.49;101793.09;5082373;27;45621;-76
2022/06/10 07:59:24;;;;;;;;;6.33;4.67;;;;;20.36;66.75;101779.38;5082297;27;45356;-77
2022/06/10 08:01:50;;;;;;;;;4.33;4.33;;;;;20.44;66.69;101782.66;5082358;27;45335;-76
2022/06/10 08:04:15;;;;;;;;;3.00;3.00;;;;;20.55;66.73;101780.31;5084662;27;47259;-76
2022/06/10 08:06:44;;;;;;;;;3.33;2.00;;;;;20.61;66.76;101786.72;5101142;27;45259;-76
2022/06/10 08:09:10;;;;;;;;;6.33;5.00;;;;;20.60;65.96;101782.38;5102361;27;45377;-76
2022/06/10 08:11:37;;;;;;;;;2.67;2.33;;;;;20.72;65.43;101780.66;5102235;27;45429;-76
2022/06/10 08:14:03;;;;;;;;;2.00;2.00;;;;;20.77;64.91;101782.69;5101128;27;47252;-77
2022/06/10 08:16:29;;;;;;;;;2.67;2.00;;;;;20.88;63.88;101781.16;5102494;27;45417;-76
2022/06/10 08:18:54;;;;;;;;;2.00;2.00;;;;;20.88;63.07;101776.59;5101247;27;45484;-76
2022/06/10 08:24:12;;;;;;;;;2.00;2.00;;;;;20.94;63.81;101781.16;5093379;27;45643;-76
2022/06/10 08:26:38;;;;;;;;;4.00;2.67;;;;;20.97;62.87;101784.44;5102129;27;45321;-76
2022/06/10 08:29:04;;;;;;;;;2.00;2.00;;;;;20.99;62.34;101783.19;5102492;27;45293;-76
2022/06/10 08:31:30;;;;;;;;;2.33;2.33;;;;;21.15;62.83;101789.09;5102148;27;45207;-76
2022/06/10 08:33:57;;;;;;;;;1.00;1.00;;;;;21.26;61.41;101793.78;5102226;27;45327;-76
2022/06/10 08:36:22;;;;;;;;;2.00;2.00;;;;;21.33;61.46;101791.03;5101874;27;45375;-76
2022/06/10 08:38:48;;;;;;;;;2.33;2.33;;;;;21.39;61.96;101779.31;5102225;27;45522;-76
2022/06/10 08:41:38;;;;;;;;;3.33;3.33;;;;;21.59;62.24;101794.53;5100620;27;46652;-76
2022/06/10 08:44:14;;;;;;;;;3.00;3.00;;;;;21.79;62.13;101783.53;5101684;27;45455;-76
2022/06/10 08:47:07;;;;;;;;;4.00;3.67;;;;;21.88;61.56;101775.13;5101554;27;45222;-76
2022/06/10 08:50:01;;;;;;;;;2.00;2.00;;;;;22.06;60.99;101780.53;5100419;27;45227;-76
2022/06/10 08:52:50;;;;;;;;;4.00;4.00;;;;;22.09;60.49;101773.84;5101854;27;45256;-76
2022/06/10 08:55:45;;;;;;;;;4.00;3.33;;;;;22.06;60.22;101772.41;5101748;27;46069;-76
2022/06/10 08:58:20;;;;;;;;;3.67;3.67;;;;;22.04;60.31;101771.81;5100389;27;45247;-76
2022/06/10 09:00:47;;;;;;;;;2.00;2.00;;;;;22.04;60.92;101771.00;5100517;27;45345;-77
2022/06/10 09:03:29;;;;;;;;;3.00;2.67;;;;;22.13;60.48;101776.91;5101717;27;45456;-78
2022/06/10 09:05:59;;;;;;;;;4.00;3.00;;;;;22.06;60.38;101761.56;5081693;27;47128;-76
2022/06/10 09:08:30;;;;;;;;;5.00;3.00;;;;;22.10;61.04;101769.25;5080855;27;45609;-77
2022/06/10 09:11:05;;;;;;;;;1.67;1.67;;;;;22.15;60.26;101766.69;5079834;28;45359;-76
2022/06/10 09:13:39;;;;;;;;;2.67;2.67;;;;;22.19;60.13;101774.13;5096762;27;46270;-77
2022/06/10 09:16:23;;;;;;;;;1.00;1.00;;;;;22.38;60.28;101781.38;5081009;27;45468;-76
2022/06/10 09:19:11;;;;;;;;;4.33;3.00;;;;;22.52;59.41;101779.31;5081049;27;45280;-76
2022/06/10 09:21:56;;;;;;;;;2.67;2.33;;;;;22.68;59.10;101780.59;5079691;28;45428;-77
2022/06/10 09:24:46;;;;;;;;;1.00;1.00;;;;;22.79;58.89;101787.94;5080911;28;45547;-76
2022/06/10 09:27:37;;;;;;;;;3.00;3.00;;;;;22.95;58.52;101788.31;5080589;27;45419;-77
2022/06/10 09:30:05;;;;;;;;;3.00;3.00;;;;;23.03;58.00;101776.31;5086587;27;45753;-76
2022/06/10 09:32:50;;;;;;;;;2.67;2.67;;;;;23.14;57.17;101775.53;5079547;28;45401;-77
2022/06/10 09:35:51;;;;;;;;;2.00;2.00;;;;;23.36;57.59;101788.47;5078981;28;47394;-77
2022/06/10 09:38:19;;;;;;;;;4.00;4.00;;;;;23.50;57.55;101785.56;5080541;27;45365;-76
2022/06/10 09:40:51;;;;;;;;;3.00;3.00;;;;;23.56;57.21;101790.84;5078995;28;45557;-76
2022/06/10 09:43:54;;;;;;;;;2.00;2.00;;;;;23.60;56.92;101777.66;5080589;27;45326;-76
2022/06/10 09:46:41;;;;;;;;;2.67;2.67;;;;;23.60;56.50;101780.38;5080613;27;45271;-76
2022/06/10 09:49:30;;;;;;;;;5.00;5.00;;;;;23.58;56.46;101780.59;5080156;27;46632;-76
2022/06/10 09:52:12;;;;;;;;;4.00;3.00;;;;;23.55;57.33;101759.38;5080325;27;45361;-77
2022/06/10 09:54:37;;;;;;;;;3.33;3.33;;;;;23.78;56.25;101767.72;5096419;27;45394;-79
2022/06/10 09:57:10;;;;;;;;;2.67;2.00;;;;;23.81;56.40;101767.25;5080276;28;45505;-77
2022/06/10 09:59:50;;;;;;;;;3.33;3.33;;;;;23.92;56.09;101774.56;5079677;27;45386;-76
2022/06/10 10:02:30;;;;;;;;;4.00;2.67;;;;;23.95;55.87;101765.91;5080279;27;45392;-76
2022/06/10 10:05:11;;;;;;;;;1.33;1.33;;;;;23.93;55.59;101775.34;5088618;27;45265;-77
2022/06/10 10:07:42;;;;;;;;;2.67;2.00;;;;;23.87;54.55;101777.16;5100418;27;45392;-76
2022/06/10 10:10:31;;;;;;;;;3.33;2.00;;;;;23.90;55.44;101778.56;5100807;27;45311;-77
2022/06/10 10:13:15;;;;;;;;;2.00;2.00;;;;;23.99;55.66;101773.56;5100565;27;45365;-77
2022/06/10 10:16:10;;;;;;;;;3.00;2.67;;;;;24.06;54.02;101761.50;5099385;27;45370;-76
2022/06/10 10:18:55;;;;;;;;;3.00;3.00;;;;;24.28;55.29;101779.06;5100532;27;45361;-77
2022/06/10 10:21:29;;;;;;;;;2.00;2.00;;;;;24.39;54.54;101780.09;5100312;27;45446;-78
2022/06/10 10:23:58;;;;;;;;;4.00;3.00;;;;;24.46;54.44;101770.72;5100286;27;45298;-77
2022/06/10 10:26:29;;;;;;;;;4.00;4.00;;;;;24.61;53.57;101760.38;5100587;27;45298;-76
2022/06/10 10:29:07;;;;;;;;;3.00;3.00;;;;;24.78;53.54;101774.78;5100232;27;45310;-77
2022/06/10 10:31:41;;;;;;;;;3.00;3.00;;;;;24.93;54.09;101779.69;5100319;27;45414;-76
2022/06/10 10:34:07;;;;;;;;;2.33;1.00;;;;;25.01;53.68;101767.59;5100083;27;45380;-77
2022/06/10 10:36:46;;;;;;;;;2.33;2.33;;;;;25.13;53.35;101761.22;5100373;27;45376;-77
2022/06/10 10:39:16;;;;;;;;;3.67;3.33;;;;;25.16;53.33;101760.75;5100227;27;45558;-76
2022/06/10 10:41:45;;;;;;;;;1.67;1.67;;;;;25.35;53.19;101764.03;5100135;27;46018;-77
2022/06/10 10:44:32;;;;;;;;;2.00;2.00;;;;;25.65;53.27;101756.56;5099892;27;45247;-77
2022/06/10 10:47:14;;;;;;;;;2.00;2.00;;;;;25.83;51.66;101753.53;5100173;27;45231;-77
2022/06/10 10:49:48;;;;;;;;;1.33;1.33;;;;;26.13;51.49;101769.66;5099884;27;45852;-76
2022/06/10 10:52:32;;;;;;;;;3.00;3.00;;;;;26.31;51.12;101758.44;5099972;27;45348;-77
2022/06/10 10:55:06;;;;;;;;;3.33;2.00;;;;;26.41;49.56;101762.34;5099940;27;45360;-77
2022/06/10 10:57:35;;;;;;;;;1.33;1.33;;;;;26.31;50.67;101752.19;5100073;27;45678;-77
2022/06/10 11:00:04;;;;;;;;;1.33;1.33;;;;;26.25;49.60;101756.75;5099934;27;45322;-76
2022/06/10 11:02:40;;;;;;;;;3.00;3.00;;;;;26.28;50.22;101752.66;5099626;27;47078;-76
2022/06/10 11:05:15;;;;;;;;;1.00;1.00;;;;;26.43;50.01;101754.75;5088241;27;45391;-77
2022/06/10 11:07:42;;;;;;;;;0.33;0.33;;;;;26.42;49.52;101761.28;5079309;28;45312;-77
2022/06/10 11:10:17;;;;;;;;;2.33;1.33;;;;;26.26;49.42;101738.47;5080870;28;45331;-76
2022/06/10 11:12:44;;;;;;;;;2.00;2.00;;;;;26.24;50.07;101751.53;5115686;27;47913;-76
2022/06/10 11:15:22;;;;;;;;;0.67;0.67;;;;;26.29;50.31;101751.59;5081501;28;45442;-76
2022/06/10 11:17:49;;;;;;;;;1.00;1.00;;;;;26.18;49.23;101745.19;5083039;27;45326;-76
2022/06/10 11:20:14;;;;;;;;;1.00;1.00;;;;;26.22;49.38;101754.53;5082666;27;45339;-78
2022/06/10 11:22:40;;;;;;;;;2.00;2.00;;;;;26.18;48.61;101746.03;5082750;28;45485;-76
2022/06/10 11:25:15;;;;;;;;;2.00;2.00;;;;;26.13;47.35;101750.59;5082930;27;45353;-76
2022/06/10 11:27:41;;;;;;;;;2.00;1.00;;;;;26.06;48.25;101742.63;5081237;28;45398;-76
2022/06/10 11:30:10;;;;;;;;;1.00;1.00;;;;;26.11;47.92;101750.84;5082695;28;45312;-78
2022/06/10 11:32:47;;;;;;;;;4.00;2.00;;;;;26.19;48.88;101747.66;5082603;28;46515;-77
2022/06/10 11:35:25;;;;;;;;;2.67;1.67;;;;;26.22;48.30;101751.78;5081028;28;45392;-77
2022/06/10 11:37:58;;;;;;;;;3.00;3.00;;;;;26.18;48.64;101745.19;5082942;28;45376;-77
2022/06/10 11:40:35;;;;;;;;;2.00;1.33;;;;;26.17;48.98;101736.22;5081088;28;46288;-78
2022/06/10 11:43:18;;;;;;;;;3.00;3.00;;;;;26.23;49.04;101742.53;5082099;28;45763;-78
2022/06/10 11:46:16;;;;;;;;;1.00;1.00;;;;;26.25;48.35;101743.13;5115410;27;45397;-76
2022/06/10 11:49:09;;;;;;;;;1.00;1.00;;;;;26.21;48.66;101741.97;5079538;27;45397;-77
2022/06/10 11:51:47;;;;;;;;;2.00;2.00;;;;;26.24;48.24;101746.91;5080850;28;47394;-76
2022/06/10 11:54:35;;;;;;;;;1.67;1.67;;;;;26.15;48.45;101742.97;5082153;27;45279;-76
2022/06/10 12:00:10;;;;;;;;;2.67;2.33;;;;;26.48;46.71;101724.81;5082643;28;45430;-78
2022/06/10 12:02:39;;;;;;;;;0.67;0.67;;;;;26.81;46.96;101743.88;5082120;27;45453;-76